Hermann, Missouri
Current Conditions -  °F | °C
As of 11:35 PM on Thursday 27 Nov 2014 (Local Time) from KFYG Reporting Station
Clear Clear  
Wind Chill: 24°   Ceiling: Unl
Heat Index: 30°   Visibility: 10mi
Dew Point: 21°   Wind: 6mph
Humidity: 69%   Direction: 130°SE
Pressure: 30.4"   Gusts: NA
Location:  38.7°N, 91.44°W
Report Text: KFYG 280535Z AUTO 13005KT 10SM CLR M01/M06 A3040 RMK AO2
Loading
Personal Weather Stations






























Interactive Weather Map New forecast layout! Learn more

10-Day Weather Forecast

Advertisements
Track Severe Weather on mobile